sensor_id;sensor_type;location;lat;lon;timestamp;P1;durP1;ratioP1;P2;durP2;ratioP2
45728;SDS011;31439;53.512;10.206;2022-09-09T00:01:37;25.25;;;20.67;;
45728;SDS011;31439;53.512;10.206;2022-09-09T00:09:47;45.75;;;20.02;;
45728;SDS011;31439;53.512;10.206;2022-09-09T00:15:20;61.40;;;20.90;;
45728;SDS011;31439;53.512;10.206;2022-09-09T00:20:54;45.55;;;18.63;;
45728;SDS011;31439;53.512;10.206;2022-09-09T00:23:42;105.55;;;20.85;;
45728;SDS011;31439;53.512;10.206;2022-09-09T00:31:48;26.08;;;18.95;;
45728;SDS011;31439;53.512;10.206;2022-09-09T00:34:21;38.03;;;19.75;;
45728;SDS011;31439;53.512;10.206;2022-09-09T00:36:50;27.45;;;19.83;;
45728;SDS011;31439;53.512;10.206;2022-09-09T00:39:27;24.02;;;18.88;;
45728;SDS011;31439;53.512;10.206;2022-09-09T00:44:50;46.30;;;20.38;;
45728;SDS011;31439;53.512;10.206;2022-09-09T00:50:19;33.70;;;21.00;;
45728;SDS011;31439;53.512;10.206;2022-09-09T00:58:33;25.70;;;20.70;;
45728;SDS011;31439;53.512;10.206;2022-09-09T01:19:27;24.13;;;19.05;;
45728;SDS011;31439;53.512;10.206;2022-09-09T01:22:11;25.27;;;19.83;;
45728;SDS011;31439;53.512;10.206;2022-09-09T01:25:15;25.77;;;19.55;;
45728;SDS011;31439;53.512;10.206;2022-09-09T01:28:00;27.50;;;20.55;;
45728;SDS011;31439;53.512;10.206;2022-09-09T01:30:33;25.05;;;19.98;;
45728;SDS011;31439;53.512;10.206;2022-09-09T01:33:00;24.52;;;18.88;;
45728;SDS011;31439;53.512;10.206;2022-09-09T01:38:16;25.10;;;20.00;;
45728;SDS011;31439;53.512;10.206;2022-09-09T01:40:42;27.17;;;17.80;;
45728;SDS011;31439;53.512;10.206;2022-09-09T01:43:08;29.80;;;20.17;;
45728;SDS011;31439;53.512;10.206;2022-09-09T01:45:34;24.42;;;19.35;;
45728;SDS011;31439;53.512;10.206;2022-09-09T01:48:00;24.17;;;19.05;;
45728;SDS011;31439;53.512;10.206;2022-09-09T01:50:27;24.60;;;19.58;;
45728;SDS011;31439;53.512;10.206;2022-09-09T01:52:55;24.40;;;19.20;;
45728;SDS011;31439;53.512;10.206;2022-09-09T01:55:33;25.30;;;20.27;;
45728;SDS011;31439;53.512;10.206;2022-09-09T01:58:11;25.70;;;19.40;;
45728;SDS011;31439;53.512;10.206;2022-09-09T02:00:41;44.35;;;20.23;;
45728;SDS011;31439;53.512;10.206;2022-09-09T02:03:27;63.50;;;21.17;;
45728;SDS011;31439;53.512;10.206;2022-09-09T02:06:56;26.48;;;19.27;;
45728;SDS011;31439;53.512;10.206;2022-09-09T02:08:52;25.33;;;19.67;;
45728;SDS011;31439;53.512;10.206;2022-09-09T02:11:22;24.35;;;19.05;;
45728;SDS011;31439;53.512;10.206;2022-09-09T02:13:51;30.48;;;19.15;;
45728;SDS011;31439;53.512;10.206;2022-09-09T02:16:24;33.67;;;18.63;;
45728;SDS011;31439;53.512;10.206;2022-09-09T02:19:01;47.67;;;19.05;;
45728;SDS011;31439;53.512;10.206;2022-09-09T02:21:30;29.10;;;18.30;;
45728;SDS011;31439;53.512;10.206;2022-09-09T02:23:57;25.25;;;18.40;;
45728;SDS011;31439;53.512;10.206;2022-09-09T02:26:25;36.17;;;19.13;;
45728;SDS011;31439;53.512;10.206;2022-09-09T02:28:52;32.85;;;19.23;;
45728;SDS011;31439;53.512;10.206;2022-09-09T02:31:22;32.75;;;18.40;;
45728;SDS011;31439;53.512;10.206;2022-09-09T02:33:56;23.17;;;17.52;;
45728;SDS011;31439;53.512;10.206;2022-09-09T02:36:26;28.52;;;17.15;;
45728;SDS011;31439;53.512;10.206;2022-09-09T02:38:55;29.25;;;17.52;;
45728;SDS011;31439;53.512;10.206;2022-09-09T02:41:30;34.22;;;17.52;;
45728;SDS011;31439;53.512;10.206;2022-09-09T02:44:01;21.15;;;16.85;;
45728;SDS011;31439;53.512;10.206;2022-09-09T02:49:28;27.63;;;16.13;;
45728;SDS011;31439;53.512;10.206;2022-09-09T02:52:32;20.95;;;15.90;;
45728;SDS011;31439;53.512;10.206;2022-09-09T02:55:12;33.25;;;17.02;;
45728;SDS011;31439;53.512;10.206;2022-09-09T02:58:01;29.67;;;17.80;;
45728;SDS011;31439;53.512;10.206;2022-09-09T03:00:31;20.10;;;16.63;;
45728;SDS011;31439;53.512;10.206;2022-09-09T03:02:57;21.25;;;16.08;;
45728;SDS011;31439;53.512;10.206;2022-09-09T03:05:23;34.75;;;17.83;;
45728;SDS011;31439;53.512;10.206;2022-09-09T03:07:48;21.92;;;17.23;;
45728;SDS011;31439;53.512;10.206;2022-09-09T03:10:18;25.05;;;17.38;;
45728;SDS011;31439;53.512;10.206;2022-09-09T03:13:10;23.42;;;17.17;;
45728;SDS011;31439;53.512;10.206;2022-09-09T03:15:40;19.25;;;16.33;;
45728;SDS011;31439;53.512;10.206;2022-09-09T03:18:06;19.42;;;16.30;;
45728;SDS011;31439;53.512;10.206;2022-09-09T03:20:35;21.02;;;17.10;;
45728;SDS011;31439;53.512;10.206;2022-09-09T03:23:00;24.38;;;17.50;;
45728;SDS011;31439;53.512;10.206;2022-09-09T03:25:27;24.83;;;16.85;;
45728;SDS011;31439;53.512;10.206;2022-09-09T03:27:53;24.23;;;16.90;;
45728;SDS011;31439;53.512;10.206;2022-09-09T03:30:23;20.45;;;16.60;;
45728;SDS011;31439;53.512;10.206;2022-09-09T03:32:50;44.08;;;18.73;;
45728;SDS011;31439;53.512;10.206;2022-09-09T03:35:16;23.13;;;18.02;;
45728;SDS011;31439;53.512;10.206;2022-09-09T03:37:42;21.45;;;17.67;;
45728;SDS011;31439;53.512;10.206;2022-09-09T03:40:07;25.23;;;17.13;;
45728;SDS011;31439;53.512;10.206;2022-09-09T03:42:35;22.10;;;17.23;;
45728;SDS011;31439;53.512;10.206;2022-09-09T03:45:02;21.98;;;17.38;;
45728;SDS011;31439;53.512;10.206;2022-09-09T03:47:29;20.02;;;16.50;;
45728;SDS011;31439;53.512;10.206;2022-09-09T03:49:54;21.35;;;16.45;;
45728;SDS011;31439;53.512;10.206;2022-09-09T03:52:20;22.25;;;18.02;;
45728;SDS011;31439;53.512;10.206;2022-09-09T03:54:46;20.63;;;16.95;;
45728;SDS011;31439;53.512;10.206;2022-09-09T03:57:12;22.83;;;17.95;;
45728;SDS011;31439;53.512;10.206;2022-09-09T03:59:41;26.30;;;17.75;;
45728;SDS011;31439;53.512;10.206;2022-09-09T04:02:07;22.02;;;17.30;;
45728;SDS011;31439;53.512;10.206;2022-09-09T04:04:34;20.90;;;16.95;;
45728;SDS011;31439;53.512;10.206;2022-09-09T04:06:59;21.52;;;17.05;;
45728;SDS011;31439;53.512;10.206;2022-09-09T04:09:25;19.80;;;15.63;;
45728;SDS011;31439;53.512;10.206;2022-09-09T04:11:51;20.27;;;16.67;;
45728;SDS011;31439;53.512;10.206;2022-09-09T04:14:18;20.30;;;15.82;;
45728;SDS011;31439;53.512;10.206;2022-09-09T04:16:43;19.98;;;16.45;;
45728;SDS011;31439;53.512;10.206;2022-09-09T04:19:09;19.83;;;16.17;;
45728;SDS011;31439;53.512;10.206;2022-09-09T04:21:38;18.23;;;14.60;;
45728;SDS011;31439;53.512;10.206;2022-09-09T04:24:08;17.83;;;15.02;;
45728;SDS011;31439;53.512;10.206;2022-09-09T04:26:34;20.88;;;15.40;;
45728;SDS011;31439;53.512;10.206;2022-09-09T04:29:01;19.40;;;15.23;;
45728;SDS011;31439;53.512;10.206;2022-09-09T04:31:27;17.88;;;14.30;;
45728;SDS011;31439;53.512;10.206;2022-09-09T04:33:54;17.05;;;14.55;;
45728;SDS011;31439;53.512;10.206;2022-09-09T04:36:19;19.70;;;14.48;;
45728;SDS011;31439;53.512;10.206;2022-09-09T04:38:45;18.52;;;14.68;;
45728;SDS011;31439;53.512;10.206;2022-09-09T04:41:11;17.10;;;14.57;;
45728;SDS011;31439;53.512;10.206;2022-09-09T04:43:38;18.08;;;14.73;;
45728;SDS011;31439;53.512;10.206;2022-09-09T04:46:04;18.40;;;14.60;;
45728;SDS011;31439;53.512;10.206;2022-09-09T04:48:30;19.83;;;14.35;;
45728;SDS011;31439;53.512;10.206;2022-09-09T04:51:06;17.50;;;14.48;;
45728;SDS011;31439;53.512;10.206;2022-09-09T04:53:38;18.67;;;13.80;;
45728;SDS011;31439;53.512;10.206;2022-09-09T04:56:14;16.38;;;13.55;;
45728;SDS011;31439;53.512;10.206;2022-09-09T04:58:41;16.40;;;12.50;;
45728;SDS011;31439;53.512;10.206;2022-09-09T05:01:17;16.38;;;13.45;;
45728;SDS011;31439;53.512;10.206;2022-09-09T05:03:45;18.02;;;13.27;;
45728;SDS011;31439;53.512;10.206;2022-09-09T05:06:12;16.15;;;12.93;;
45728;SDS011;31439;53.512;10.206;2022-09-09T05:08:40;16.48;;;13.27;;
45728;SDS011;31439;53.512;10.206;2022-09-09T05:11:39;14.70;;;12.95;;
45728;SDS011;31439;53.512;10.206;2022-09-09T05:14:01;13.35;;;11.18;;
45728;SDS011;31439;53.512;10.206;2022-09-09T05:16:27;14.27;;;11.25;;
45728;SDS011;31439;53.512;10.206;2022-09-09T05:18:53;15.43;;;11.75;;
45728;SDS011;31439;53.512;10.206;2022-09-09T05:21:19;13.90;;;11.70;;
45728;SDS011;31439;53.512;10.206;2022-09-09T05:23:46;14.00;;;11.27;;
45728;SDS011;31439;53.512;10.206;2022-09-09T05:26:16;14.00;;;11.10;;
45728;SDS011;31439;53.512;10.206;2022-09-09T05:28:43;12.48;;;10.32;;
45728;SDS011;31439;53.512;10.206;2022-09-09T05:31:10;12.10;;;9.98;;
45728;SDS011;31439;53.512;10.206;2022-09-09T05:33:37;14.20;;;10.40;;
45728;SDS011;31439;53.512;10.206;2022-09-09T05:36:08;15.30;;;9.82;;
45728;SDS011;31439;53.512;10.206;2022-09-09T05:38:38;13.10;;;10.35;;
45728;SDS011;31439;53.512;10.206;2022-09-09T05:41:05;12.90;;;10.43;;
45728;SDS011;31439;53.512;10.206;2022-09-09T05:43:32;15.55;;;10.35;;
45728;SDS011;31439;53.512;10.206;2022-09-09T05:46:02;12.18;;;9.50;;
45728;SDS011;31439;53.512;10.206;2022-09-09T05:51:00;10.50;;;9.25;;
45728;SDS011;31439;53.512;10.206;2022-09-09T05:53:26;11.82;;;8.73;;
45728;SDS011;31439;53.512;10.206;2022-09-09T05:55:59;10.32;;;7.93;;
45728;SDS011;31439;53.512;10.206;2022-09-09T05:58:29;11.30;;;8.93;;
45728;SDS011;31439;53.512;10.206;2022-09-09T06:03:27;11.93;;;8.55;;
45728;SDS011;31439;53.512;10.206;2022-09-09T06:06:00;14.48;;;8.73;;
45728;SDS011;31439;53.512;10.206;2022-09-09T06:08:27;16.17;;;7.70;;
45728;SDS011;31439;53.512;10.206;2022-09-09T06:10:53;11.85;;;8.40;;
45728;SDS011;31439;53.512;10.206;2022-09-09T06:13:18;9.55;;;8.05;;
45728;SDS011;31439;53.512;10.206;2022-09-09T06:15:50;12.13;;;7.93;;
45728;SDS011;31439;53.512;10.206;2022-09-09T06:18:17;11.25;;;8.02;;
45728;SDS011;31439;53.512;10.206;2022-09-09T06:20:52;9.82;;;7.85;;
45728;SDS011;31439;53.512;10.206;2022-09-09T06:23:26;9.45;;;7.18;;
45728;SDS011;31439;53.512;10.206;2022-09-09T06:26:03;10.98;;;8.07;;
45728;SDS011;31439;53.512;10.206;2022-09-09T06:28:34;9.65;;;7.97;;
45728;SDS011;31439;53.512;10.206;2022-09-09T06:31:01;9.18;;;7.80;;
45728;SDS011;31439;53.512;10.206;2022-09-09T06:33:35;11.25;;;7.90;;
45728;SDS011;31439;53.512;10.206;2022-09-09T06:36:08;11.18;;;7.47;;
45728;SDS011;31439;53.512;10.206;2022-09-09T06:38:37;10.73;;;7.78;;
45728;SDS011;31439;53.512;10.206;2022-09-09T06:41:03;9.30;;;7.00;;
45728;SDS011;31439;53.512;10.206;2022-09-09T06:43:30;9.32;;;6.68;;
45728;SDS011;31439;53.512;10.206;2022-09-09T06:46:03;9.88;;;6.72;;
45728;SDS011;31439;53.512;10.206;2022-09-09T06:48:30;9.35;;;5.68;;
45728;SDS011;31439;53.512;10.206;2022-09-09T06:51:09;8.38;;;5.65;;
45728;SDS011;31439;53.512;10.206;2022-09-09T06:53:37;7.30;;;6.15;;
45728;SDS011;31439;53.512;10.206;2022-09-09T06:58:35;8.25;;;5.80;;
45728;SDS011;31439;53.512;10.206;2022-09-09T07:01:09;6.68;;;5.75;;
45728;SDS011;31439;53.512;10.206;2022-09-09T07:03:40;13.18;;;5.75;;
45728;SDS011;31439;53.512;10.206;2022-09-09T07:06:08;7.57;;;5.97;;
45728;SDS011;31439;53.512;10.206;2022-09-09T07:08:39;6.88;;;6.05;;
45728;SDS011;31439;53.512;10.206;2022-09-09T07:11:05;8.65;;;6.07;;
45728;SDS011;31439;53.512;10.206;2022-09-09T07:13:32;8.10;;;5.85;;
45728;SDS011;31439;53.512;10.206;2022-09-09T07:16:05;7.70;;;5.68;;
45728;SDS011;31439;53.512;10.206;2022-09-09T07:18:35;8.05;;;5.32;;
45728;SDS011;31439;53.512;10.206;2022-09-09T07:21:01;6.85;;;5.03;;
45728;SDS011;31439;53.512;10.206;2022-09-09T07:23:28;10.82;;;5.53;;
45728;SDS011;31439;53.512;10.206;2022-09-09T07:25:55;9.85;;;5.53;;
45728;SDS011;31439;53.512;10.206;2022-09-09T07:28:21;8.75;;;4.40;;
45728;SDS011;31439;53.512;10.206;2022-09-09T07:30:57;8.50;;;4.75;;
45728;SDS011;31439;53.512;10.206;2022-09-09T07:33:27;8.30;;;4.85;;
45728;SDS011;31439;53.512;10.206;2022-09-09T07:36:01;8.20;;;4.22;;
45728;SDS011;31439;53.512;10.206;2022-09-09T07:38:28;5.28;;;4.28;;
45728;SDS011;31439;53.512;10.206;2022-09-09T07:41:01;9.75;;;4.05;;
45728;SDS011;31439;53.512;10.206;2022-09-09T07:43:28;6.95;;;4.28;;
45728;SDS011;31439;53.512;10.206;2022-09-09T07:45:57;7.38;;;3.95;;
45728;SDS011;31439;53.512;10.206;2022-09-09T07:48:23;6.78;;;4.28;;
45728;SDS011;31439;53.512;10.206;2022-09-09T07:50:48;6.18;;;3.97;;
45728;SDS011;31439;53.512;10.206;2022-09-09T07:53:14;6.78;;;3.97;;
45728;SDS011;31439;53.512;10.206;2022-09-09T07:55:39;7.30;;;3.85;;
45728;SDS011;31439;53.512;10.206;2022-09-09T07:58:05;6.68;;;3.85;;
45728;SDS011;31439;53.512;10.206;2022-09-09T08:00:30;6.63;;;3.60;;
45728;SDS011;31439;53.512;10.206;2022-09-09T08:02:58;6.90;;;3.63;;
45728;SDS011;31439;53.512;10.206;2022-09-09T08:05:25;6.18;;;4.00;;
45728;SDS011;31439;53.512;10.206;2022-09-09T08:07:51;7.63;;;3.80;;
45728;SDS011;31439;53.512;10.206;2022-09-09T08:10:16;6.85;;;3.60;;
45728;SDS011;31439;53.512;10.206;2022-09-09T08:12:42;8.15;;;3.75;;
45728;SDS011;31439;53.512;10.206;2022-09-09T08:15:08;6.90;;;3.53;;
45728;SDS011;31439;53.512;10.206;2022-09-09T08:17:34;5.78;;;3.53;;
45728;SDS011;31439;53.512;10.206;2022-09-09T08:20:07;5.70;;;3.42;;
45728;SDS011;31439;53.512;10.206;2022-09-09T08:22:33;5.78;;;3.53;;
45728;SDS011;31439;53.512;10.206;2022-09-09T08:25:02;5.78;;;3.65;;
45728;SDS011;31439;53.512;10.206;2022-09-09T08:27:31;4.18;;;3.15;;
45728;SDS011;31439;53.512;10.206;2022-09-09T08:29:59;8.82;;;3.47;;
45728;SDS011;31439;53.512;10.206;2022-09-09T08:32:27;5.32;;;3.53;;
45728;SDS011;31439;53.512;10.206;2022-09-09T08:34:53;6.32;;;3.38;;
45728;SDS011;31439;53.512;10.206;2022-09-09T08:37:19;4.65;;;3.20;;
45728;SDS011;31439;53.512;10.206;2022-09-09T08:39:45;7.50;;;3.33;;
45728;SDS011;31439;53.512;10.206;2022-09-09T08:45:03;7.60;;;3.50;;
45728;SDS011;31439;53.512;10.206;2022-09-09T08:50:35;4.32;;;3.00;;
45728;SDS011;31439;53.512;10.206;2022-09-09T08:58:16;5.72;;;3.05;;
45728;SDS011;31439;53.512;10.206;2022-09-09T09:08:47;4.68;;;2.58;;
45728;SDS011;31439;53.512;10.206;2022-09-09T09:11:21;6.43;;;2.30;;
45728;SDS011;31439;53.512;10.206;2022-09-09T09:13:58;6.32;;;2.80;;
45728;SDS011;31439;53.512;10.206;2022-09-09T09:19:13;5.57;;;2.47;;
45728;SDS011;31439;53.512;10.206;2022-09-09T09:21:42;5.50;;;2.13;;
45728;SDS011;31439;53.512;10.206;2022-09-09T09:24:16;5.47;;;2.47;;
45728;SDS011;31439;53.512;10.206;2022-09-09T09:26:57;3.60;;;2.10;;
45728;SDS011;31439;53.512;10.206;2022-09-09T09:29:26;3.67;;;2.10;;
45728;SDS011;31439;53.512;10.206;2022-09-09T09:31:52;4.70;;;2.08;;
45728;SDS011;31439;53.512;10.206;2022-09-09T09:34:21;3.90;;;1.88;;
45728;SDS011;31439;53.512;10.206;2022-09-09T09:36:56;3.83;;;2.30;;
45728;SDS011;31439;53.512;10.206;2022-09-09T09:39:29;3.83;;;2.08;;
45728;SDS011;31439;53.512;10.206;2022-09-09T09:42:07;6.30;;;2.42;;
45728;SDS011;31439;53.512;10.206;2022-09-09T09:44:35;4.25;;;2.15;;
45728;SDS011;31439;53.512;10.206;2022-09-09T09:47:10;3.95;;;1.90;;
45728;SDS011;31439;53.512;10.206;2022-09-09T09:49:56;4.32;;;2.08;;
45728;SDS011;31439;53.512;10.206;2022-09-09T09:52:28;3.30;;;1.83;;
45728;SDS011;31439;53.512;10.206;2022-09-09T09:54:55;5.88;;;2.40;;
45728;SDS011;31439;53.512;10.206;2022-09-09T09:57:28;4.55;;;2.20;;
45728;SDS011;31439;53.512;10.206;2022-09-09T10:02:43;4.32;;;2.20;;
45728;SDS011;31439;53.512;10.206;2022-09-09T10:07:45;4.22;;;2.15;;
45728;SDS011;31439;53.512;10.206;2022-09-09T10:10:13;3.85;;;1.77;;
45728;SDS011;31439;53.512;10.206;2022-09-09T10:13:07;4.10;;;2.30;;
45728;SDS011;31439;53.512;10.206;2022-09-09T10:20:59;4.45;;;1.90;;
45728;SDS011;31439;53.512;10.206;2022-09-09T10:23:55;7.15;;;2.30;;
45728;SDS011;31439;53.512;10.206;2022-09-09T10:32:06;3.22;;;1.90;;
45728;SDS011;31439;53.512;10.206;2022-09-09T10:34:56;4.35;;;2.00;;
45728;SDS011;31439;53.512;10.206;2022-09-09T10:42:46;5.10;;;2.00;;
45728;SDS011;31439;53.512;10.206;2022-09-09T10:45:18;5.18;;;1.88;;
45728;SDS011;31439;53.512;10.206;2022-09-09T10:48:04;4.22;;;1.75;;
45728;SDS011;31439;53.512;10.206;2022-09-09T10:51:02;4.90;;;1.70;;
45728;SDS011;31439;53.512;10.206;2022-09-09T10:56:12;4.18;;;1.67;;
45728;SDS011;31439;53.512;10.206;2022-09-09T11:01:14;3.92;;;1.63;;
45728;SDS011;31439;53.512;10.206;2022-09-09T11:03:52;4.03;;;1.70;;
45728;SDS011;31439;53.512;10.206;2022-09-09T11:06:28;5.45;;;1.70;;
45728;SDS011;31439;53.512;10.206;2022-09-09T11:08:59;4.47;;;1.90;;
45728;SDS011;31439;53.512;10.206;2022-09-09T11:11:29;3.28;;;1.80;;
45728;SDS011;31439;53.512;10.206;2022-09-09T11:14:21;4.75;;;1.85;;
45728;SDS011;31439;53.512;10.206;2022-09-09T11:17:01;4.50;;;1.92;;
45728;SDS011;31439;53.512;10.206;2022-09-09T11:22:04;3.95;;;1.90;;
45728;SDS011;31439;53.512;10.206;2022-09-09T11:24:56;4.35;;;1.80;;
45728;SDS011;31439;53.512;10.206;2022-09-09T11:27:27;4.35;;;2.10;;
45728;SDS011;31439;53.512;10.206;2022-09-09T11:38:26;3.67;;;1.63;;
45728;SDS011;31439;53.512;10.206;2022-09-09T11:40:58;4.32;;;1.50;;
45728;SDS011;31439;53.512;10.206;2022-09-09T11:43:28;5.32;;;1.58;;
45728;SDS011;31439;53.512;10.206;2022-09-09T11:45:58;11.38;;;1.70;;
45728;SDS011;31439;53.512;10.206;2022-09-09T11:48:29;3.22;;;1.52;;
45728;SDS011;31439;53.512;10.206;2022-09-09T11:51:10;5.53;;;1.92;;
45728;SDS011;31439;53.512;10.206;2022-09-09T11:53:47;4.85;;;1.60;;
45728;SDS011;31439;53.512;10.206;2022-09-09T11:56:23;8.00;;;1.70;;
45728;SDS011;31439;53.512;10.206;2022-09-09T11:59:03;3.88;;;1.63;;
45728;SDS011;31439;53.512;10.206;2022-09-09T12:06:52;5.22;;;1.63;;
45728;SDS011;31439;53.512;10.206;2022-09-09T12:17:20;6.88;;;2.20;;
45728;SDS011;31439;53.512;10.206;2022-09-09T12:19:48;5.47;;;2.03;;
45728;SDS011;31439;53.512;10.206;2022-09-09T12:22:35;5.40;;;2.60;;
45728;SDS011;31439;53.512;10.206;2022-09-09T12:25:23;5.43;;;2.50;;
45728;SDS011;31439;53.512;10.206;2022-09-09T12:30:32;5.20;;;2.25;;
45728;SDS011;31439;53.512;10.206;2022-09-09T12:33:16;6.03;;;2.28;;
45728;SDS011;31439;53.512;10.206;2022-09-09T12:35:43;6.43;;;2.38;;
45728;SDS011;31439;53.512;10.206;2022-09-09T12:38:13;4.18;;;2.35;;
45728;SDS011;31439;53.512;10.206;2022-09-09T12:40:53;5.00;;;2.30;;
45728;SDS011;31439;53.512;10.206;2022-09-09T12:43:21;6.35;;;2.38;;
45728;SDS011;31439;53.512;10.206;2022-09-09T12:45:48;6.53;;;2.30;;
45728;SDS011;31439;53.512;10.206;2022-09-09T12:48:22;3.65;;;2.25;;
45728;SDS011;31439;53.512;10.206;2022-09-09T12:50:53;4.63;;;2.20;;
45728;SDS011;31439;53.512;10.206;2022-09-09T12:55:59;6.68;;;2.28;;
45728;SDS011;31439;53.512;10.206;2022-09-09T12:58:32;5.85;;;2.45;;
45728;SDS011;31439;53.512;10.206;2022-09-09T13:00:58;5.15;;;2.20;;
45728;SDS011;31439;53.512;10.206;2022-09-09T13:03:25;3.88;;;2.00;;
45728;SDS011;31439;53.512;10.206;2022-09-09T13:05:51;4.45;;;2.00;;
45728;SDS011;31439;53.512;10.206;2022-09-09T13:08:18;5.05;;;2.10;;
45728;SDS011;31439;53.512;10.206;2022-09-09T13:10:50;4.13;;;2.00;;
45728;SDS011;31439;53.512;10.206;2022-09-09T13:13:26;5.97;;;2.20;;
45728;SDS011;31439;53.512;10.206;2022-09-09T13:15:58;5.22;;;1.88;;
45728;SDS011;31439;53.512;10.206;2022-09-09T13:18:34;5.35;;;1.80;;
45728;SDS011;31439;53.512;10.206;2022-09-09T13:21:04;4.47;;;2.00;;
45728;SDS011;31439;53.512;10.206;2022-09-09T13:23:30;4.10;;;1.80;;
45728;SDS011;31439;53.512;10.206;2022-09-09T13:26:02;3.90;;;1.70;;
45728;SDS011;31439;53.512;10.206;2022-09-09T13:28:46;6.97;;;2.30;;
45728;SDS011;31439;53.512;10.206;2022-09-09T13:31:24;7.25;;;1.80;;
45728;SDS011;31439;53.512;10.206;2022-09-09T13:33:54;5.28;;;2.08;;
45728;SDS011;31439;53.512;10.206;2022-09-09T13:36:30;4.75;;;1.90;;
45728;SDS011;31439;53.512;10.206;2022-09-09T13:38:58;3.85;;;1.85;;
45728;SDS011;31439;53.512;10.206;2022-09-09T13:41:42;3.83;;;1.90;;
45728;SDS011;31439;53.512;10.206;2022-09-09T13:44:22;4.70;;;2.55;;
45728;SDS011;31439;53.512;10.206;2022-09-09T13:47:01;5.38;;;2.30;;
45728;SDS011;31439;53.512;10.206;2022-09-09T13:49:28;3.78;;;1.98;;
45728;SDS011;31439;53.512;10.206;2022-09-09T13:52:05;4.35;;;1.90;;
45728;SDS011;31439;53.512;10.206;2022-09-09T13:54:36;3.28;;;1.90;;
45728;SDS011;31439;53.512;10.206;2022-09-09T13:57:01;4.97;;;1.98;;
45728;SDS011;31439;53.512;10.206;2022-09-09T13:59:29;5.18;;;2.10;;
45728;SDS011;31439;53.512;10.206;2022-09-09T14:01:55;4.55;;;2.20;;
45728;SDS011;31439;53.512;10.206;2022-09-09T14:04:21;5.32;;;2.10;;
45728;SDS011;31439;53.512;10.206;2022-09-09T14:06:46;5.72;;;2.40;;
45728;SDS011;31439;53.512;10.206;2022-09-09T14:09:13;4.55;;;2.17;;
45728;SDS011;31439;53.512;10.206;2022-09-09T14:11:40;6.20;;;2.40;;
45728;SDS011;31439;53.512;10.206;2022-09-09T14:14:06;7.03;;;2.70;;
45728;SDS011;31439;53.512;10.206;2022-09-09T14:16:32;5.25;;;2.40;;
45728;SDS011;31439;53.512;10.206;2022-09-09T14:18:58;5.55;;;2.47;;
45728;SDS011;31439;53.512;10.206;2022-09-09T14:21:24;5.65;;;2.33;;
45728;SDS011;31439;53.512;10.206;2022-09-09T14:23:50;9.38;;;2.58;;
45728;SDS011;31439;53.512;10.206;2022-09-09T14:26:17;7.40;;;2.70;;
45728;SDS011;31439;53.512;10.206;2022-09-09T14:28:47;6.15;;;2.30;;
45728;SDS011;31439;53.512;10.206;2022-09-09T14:31:13;6.45;;;2.97;;
45728;SDS011;31439;53.512;10.206;2022-09-09T14:33:38;6.97;;;2.83;;
45728;SDS011;31439;53.512;10.206;2022-09-09T14:36:04;6.90;;;2.70;;
45728;SDS011;31439;53.512;10.206;2022-09-09T14:38:32;4.95;;;2.30;;
45728;SDS011;31439;53.512;10.206;2022-09-09T14:41:04;6.68;;;2.50;;
45728;SDS011;31439;53.512;10.206;2022-09-09T14:43:31;8.48;;;2.60;;
45728;SDS011;31439;53.512;10.206;2022-09-09T14:45:57;4.07;;;2.20;;
45728;SDS011;31439;53.512;10.206;2022-09-09T14:48:30;6.00;;;2.50;;
45728;SDS011;31439;53.512;10.206;2022-09-09T14:50:56;4.05;;;2.13;;
45728;SDS011;31439;53.512;10.206;2022-09-09T14:53:21;5.07;;;2.38;;
45728;SDS011;31439;53.512;10.206;2022-09-09T14:55:47;6.45;;;2.33;;
45728;SDS011;31439;53.512;10.206;2022-09-09T14:58:13;4.80;;;2.22;;
45728;SDS011;31439;53.512;10.206;2022-09-09T15:00:38;6.82;;;2.28;;
45728;SDS011;31439;53.512;10.206;2022-09-09T15:03:04;3.65;;;1.92;;
45728;SDS011;31439;53.512;10.206;2022-09-09T15:05:29;5.25;;;1.88;;
45728;SDS011;31439;53.512;10.206;2022-09-09T15:07:58;3.85;;;1.70;;
45728;SDS011;31439;53.512;10.206;2022-09-09T15:10:23;5.68;;;2.10;;
45728;SDS011;31439;53.512;10.206;2022-09-09T15:12:49;4.55;;;1.90;;
45728;SDS011;31439;53.512;10.206;2022-09-09T15:15:14;4.57;;;1.90;;
45728;SDS011;31439;53.512;10.206;2022-09-09T15:17:43;6.65;;;1.92;;
45728;SDS011;31439;53.512;10.206;2022-09-09T15:20:08;5.28;;;1.98;;
45728;SDS011;31439;53.512;10.206;2022-09-09T15:22:34;4.15;;;2.00;;
45728;SDS011;31439;53.512;10.206;2022-09-09T15:25:01;4.55;;;2.20;;
45728;SDS011;31439;53.512;10.206;2022-09-09T15:27:27;5.15;;;2.22;;
45728;SDS011;31439;53.512;10.206;2022-09-09T15:29:53;4.72;;;2.08;;
45728;SDS011;31439;53.512;10.206;2022-09-09T15:32:23;5.53;;;2.67;;
45728;SDS011;31439;53.512;10.206;2022-09-09T15:34:48;4.45;;;2.08;;
45728;SDS011;31439;53.512;10.206;2022-09-09T15:37:16;5.90;;;2.42;;
45728;SDS011;31439;53.512;10.206;2022-09-09T15:39:41;4.20;;;2.70;;
45728;SDS011;31439;53.512;10.206;2022-09-09T15:42:07;5.43;;;2.92;;
45728;SDS011;31439;53.512;10.206;2022-09-09T15:44:42;7.38;;;3.05;;
45728;SDS011;31439;53.512;10.206;2022-09-09T15:47:07;7.90;;;2.90;;
45728;SDS011;31439;53.512;10.206;2022-09-09T15:49:38;7.03;;;3.13;;
45728;SDS011;31439;53.512;10.206;2022-09-09T15:52:04;8.50;;;3.05;;
45728;SDS011;31439;53.512;10.206;2022-09-09T15:54:35;6.28;;;2.97;;
45728;SDS011;31439;53.512;10.206;2022-09-09T15:57:04;9.23;;;3.20;;
45728;SDS011;31439;53.512;10.206;2022-09-09T15:59:31;5.00;;;3.20;;
45728;SDS011;31439;53.512;10.206;2022-09-09T16:01:58;7.32;;;3.00;;
45728;SDS011;31439;53.512;10.206;2022-09-09T16:04:24;5.22;;;3.58;;
45728;SDS011;31439;53.512;10.206;2022-09-09T16:06:51;9.00;;;3.72;;
45728;SDS011;31439;53.512;10.206;2022-09-09T16:09:18;4.63;;;2.60;;
45728;SDS011;31439;53.512;10.206;2022-09-09T16:11:44;6.65;;;3.00;;
45728;SDS011;31439;53.512;10.206;2022-09-09T16:14:12;5.68;;;2.67;;
45728;SDS011;31439;53.512;10.206;2022-09-09T16:16:38;4.43;;;2.67;;
45728;SDS011;31439;53.512;10.206;2022-09-09T16:19:08;3.90;;;2.05;;
45728;SDS011;31439;53.512;10.206;2022-09-09T16:21:37;5.35;;;2.28;;
45728;SDS011;31439;53.512;10.206;2022-09-09T16:24:07;4.78;;;2.30;;
45728;SDS011;31439;53.512;10.206;2022-09-09T16:26:38;3.88;;;2.28;;
45728;SDS011;31439;53.512;10.206;2022-09-09T16:29:05;5.57;;;2.42;;
45728;SDS011;31439;53.512;10.206;2022-09-09T16:31:31;7.38;;;2.60;;
45728;SDS011;31439;53.512;10.206;2022-09-09T16:33:57;4.47;;;2.53;;
45728;SDS011;31439;53.512;10.206;2022-09-09T16:36:27;5.47;;;2.38;;
45728;SDS011;31439;53.512;10.206;2022-09-09T16:38:57;4.47;;;2.13;;
45728;SDS011;31439;53.512;10.206;2022-09-09T16:41:25;4.80;;;2.10;;
45728;SDS011;31439;53.512;10.206;2022-09-09T16:44:03;3.90;;;2.30;;
45728;SDS011;31439;53.512;10.206;2022-09-09T16:46:30;7.38;;;2.13;;
45728;SDS011;31439;53.512;10.206;2022-09-09T16:48:57;3.05;;;1.70;;
45728;SDS011;31439;53.512;10.206;2022-09-09T16:51:25;4.28;;;2.20;;
45728;SDS011;31439;53.512;10.206;2022-09-09T16:53:57;3.92;;;1.90;;
45728;SDS011;31439;53.512;10.206;2022-09-09T16:56:25;3.15;;;2.15;;
45728;SDS011;31439;53.512;10.206;2022-09-09T16:58:54;3.70;;;2.30;;
45728;SDS011;31439;53.512;10.206;2022-09-09T17:01:24;3.80;;;2.17;;
45728;SDS011;31439;53.512;10.206;2022-09-09T17:03:58;4.75;;;2.40;;